createdAt,value
2023-12-02T00:01:40.074Z,0.70
2023-12-02T00:04:06.799Z,0.80
2023-12-02T00:06:33.647Z,0.70
2023-12-02T00:09:02.935Z,0.70
2023-12-02T00:11:29.639Z,0.80
2023-12-02T00:13:56.320Z,0.80
2023-12-02T00:16:23.004Z,0.80
2023-12-02T00:18:54.800Z,0.80
2023-12-02T00:21:21.796Z,0.80
2023-12-02T00:23:48.468Z,0.80
2023-12-02T00:26:17.662Z,0.80
2023-12-02T00:28:44.387Z,0.80
2023-12-02T00:31:11.100Z,0.80
2023-12-02T00:33:39.908Z,0.70
2023-12-02T00:36:06.939Z,0.70
2023-12-02T00:38:35.746Z,0.70
2023-12-02T00:41:04.490Z,0.70
2023-12-02T00:43:31.201Z,0.70
2023-12-02T00:45:57.905Z,0.70
2023-12-02T00:48:25.208Z,0.70
2023-12-02T00:50:52.097Z,0.70
2023-12-02T00:53:21.483Z,0.70
2023-12-02T00:55:48.172Z,0.70
2023-12-02T00:58:17.962Z,0.70
2023-12-02T01:00:46.719Z,0.60
2023-12-02T01:03:16.221Z,0.60
2023-12-02T01:05:42.945Z,0.60
2023-12-02T01:08:09.610Z,0.60
2023-12-02T01:10:36.321Z,0.60
2023-12-02T01:13:06.413Z,0.50
2023-12-02T01:15:33.174Z,0.50
2023-12-02T01:17:59.983Z,0.50
2023-12-02T01:20:26.782Z,0.50
2023-12-02T01:22:55.632Z,0.50
2023-12-02T01:25:24.466Z,0.50
2023-12-02T01:27:51.140Z,0.40
2023-12-02T01:30:20.138Z,0.30
2023-12-02T01:32:49.810Z,0.30
2023-12-02T01:35:16.519Z,0.30
2023-12-02T01:37:45.673Z,0.30
2023-12-02T01:40:15.315Z,0.30
2023-12-02T01:42:42.067Z,0.30
2023-12-02T01:45:09.406Z,0.30
2023-12-02T01:47:36.200Z,0.30
2023-12-02T01:50:04.603Z,0.30
2023-12-02T01:52:31.589Z,0.30
2023-12-02T01:54:58.376Z,0.30
2023-12-02T01:57:25.144Z,0.20
2023-12-02T01:59:59.612Z,0.20
2023-12-02T02:02:27.206Z,0.20
2023-12-02T02:04:58.374Z,0.20
2023-12-02T02:07:27.039Z,0.20
2023-12-02T02:09:53.672Z,0.20
2023-12-02T02:12:20.924Z,0.20
2023-12-02T02:14:47.743Z,0.20
2023-12-02T02:17:16.869Z,0.20
2023-12-02T02:19:43.625Z,0.20
2023-12-02T02:22:12.816Z,0.10
2023-12-02T02:24:39.888Z,0.20
2023-12-02T02:27:06.578Z,0.10
2023-12-02T02:29:33.286Z,0.10
2023-12-02T02:31:59.946Z,0.20
2023-12-02T02:34:26.941Z,0.10
2023-12-02T02:36:53.730Z,0.10
2023-12-02T02:39:23.066Z,0.10
2023-12-02T02:41:50.078Z,0.10
2023-12-02T02:44:17.015Z,0.10
2023-12-02T02:46:43.838Z,0.10
2023-12-02T02:49:10.679Z,0.10
2023-12-02T02:51:39.602Z,0.10
2023-12-02T02:54:06.398Z,0.10
2023-12-02T02:56:33.098Z,0.10
2023-12-02T02:58:59.768Z,0.10
2023-12-02T03:01:26.456Z,0.10
2023-12-02T03:03:53.173Z,0.10
2023-12-02T03:06:25.633Z,0.00
2023-12-02T03:08:52.369Z,0.00
2023-12-02T03:11:19.792Z,0.00
2023-12-02T03:13:46.413Z,0.00
2023-12-02T03:16:13.123Z,0.00
2023-12-02T03:18:39.928Z,-0.10
2023-12-02T03:21:09.003Z,-0.10
2023-12-02T03:23:35.844Z,-0.10
2023-12-02T03:26:02.549Z,-0.10
2023-12-02T03:28:29.251Z,-0.10
2023-12-02T03:30:57.368Z,-0.10
2023-12-02T03:33:24.126Z,-0.10
2023-12-02T03:35:50.837Z,-0.10
2023-12-02T03:38:20.453Z,-0.10
2023-12-02T03:40:47.200Z,-0.10
2023-12-02T03:43:13.894Z,-0.10
2023-12-02T03:45:40.598Z,-0.10
2023-12-02T03:48:07.373Z,-0.10
2023-12-02T03:50:34.155Z,-0.10
2023-12-02T03:53:03.858Z,-0.10
2023-12-02T03:55:30.882Z,-0.20
2023-12-02T03:57:57.557Z,-0.20
2023-12-02T04:00:25.053Z,-0.20
2023-12-02T04:02:51.747Z,-0.10
2023-12-02T04:05:19.185Z,-0.20
2023-12-02T04:07:46.006Z,-0.10
2023-12-02T04:10:15.228Z,-0.10
2023-12-02T04:12:43.827Z,-0.20
2023-12-02T04:15:13.257Z,-0.10
2023-12-02T04:17:42.488Z,-0.20
2023-12-02T04:20:10.356Z,-0.20
2023-12-02T04:22:40.251Z,-0.20
2023-12-02T04:25:07.585Z,-0.20
2023-12-02T04:27:37.234Z,-0.20
2023-12-02T04:30:04.193Z,-0.20
2023-12-02T04:32:33.493Z,-0.10
2023-12-02T04:35:00.305Z,-0.10
2023-12-02T04:37:29.260Z,-0.10
2023-12-02T04:39:58.761Z,-0.10
2023-12-02T04:42:27.949Z,-0.10
2023-12-02T04:44:54.652Z,-0.20
2023-12-02T04:47:21.413Z,-0.20
2023-12-02T04:49:50.516Z,-0.20
2023-12-02T04:52:20.120Z,-0.20
2023-12-02T04:54:49.392Z,-0.20
2023-12-02T04:57:16.528Z,-0.10
2023-12-02T04:59:45.696Z,-0.20
2023-12-02T05:02:12.350Z,-0.10
2023-12-02T05:04:39.095Z,-0.10
2023-12-02T05:07:05.912Z,-0.10
2023-12-02T05:09:32.749Z,-0.10
2023-12-02T05:11:59.631Z,-0.10
2023-12-02T05:14:26.581Z,-0.10
2023-12-02T05:16:53.442Z,-0.10
2023-12-02T05:19:20.181Z,-0.10
2023-12-02T05:21:49.501Z,-0.10
2023-12-02T05:24:19.130Z,-0.10
2023-12-02T05:26:46.858Z,-0.10
2023-12-02T05:29:13.682Z,-0.10
2023-12-02T05:31:40.425Z,-0.20
2023-12-02T05:34:07.205Z,-0.10
2023-12-02T05:36:34.533Z,-0.20
2023-12-02T05:39:01.313Z,-0.20
2023-12-02T05:41:28.353Z,-0.20
2023-12-02T05:43:58.235Z,-0.20
2023-12-02T05:46:25.057Z,-0.20
2023-12-02T05:48:52.240Z,-0.20
2023-12-02T05:51:22.191Z,-0.20
2023-12-02T05:53:49.001Z,-0.20
2023-12-02T05:56:22.528Z,-0.20
2023-12-02T05:58:49.292Z,-0.20
2023-12-02T06:01:23.236Z,-0.20
2023-12-02T06:03:51.534Z,-0.20
2023-12-02T06:06:18.847Z,-0.20
2023-12-02T06:08:47.773Z,-0.20
2023-12-02T06:11:16.938Z,-0.20
2023-12-02T06:13:43.662Z,-0.20
2023-12-02T06:16:13.125Z,-0.20
2023-12-02T06:18:40.036Z,-0.20
2023-12-02T06:21:07.084Z,-0.20
2023-12-02T06:23:37.021Z,-0.20
2023-12-02T06:26:03.758Z,-0.20
2023-12-02T06:28:30.419Z,-0.20
2023-12-02T06:30:58.904Z,-0.20
2023-12-02T06:33:25.695Z,-0.20
2023-12-02T06:35:52.476Z,-0.20
2023-12-02T06:38:19.159Z,-0.20
2023-12-02T06:40:45.914Z,-0.20
2023-12-02T06:43:15.069Z,-0.20
2023-12-02T06:45:41.807Z,-0.10
2023-12-02T06:48:11.732Z,-0.10
2023-12-02T06:50:38.436Z,-0.10
2023-12-02T06:53:05.215Z,-0.10
2023-12-02T06:55:35.076Z,-0.10
2023-12-02T06:58:01.899Z,-0.20
2023-12-02T07:00:28.672Z,-0.20
2023-12-02T07:02:55.491Z,-0.10
2023-12-02T07:05:22.433Z,-0.20
2023-12-02T07:07:49.204Z,-0.20
2023-12-02T07:10:18.014Z,-0.20
2023-12-02T07:12:44.830Z,-0.20
2023-12-02T07:15:13.699Z,-0.20
2023-12-02T07:17:40.429Z,-0.20
2023-12-02T07:20:07.870Z,-0.10
2023-12-02T07:22:34.551Z,-0.10
2023-12-02T07:25:01.248Z,-0.10
2023-12-02T07:27:29.900Z,-0.10
2023-12-02T07:32:26.901Z,-0.10
2023-12-02T07:34:53.751Z,-0.10
2023-12-02T07:37:20.576Z,-0.20
2023-12-02T07:39:49.538Z,-0.20
2023-12-02T07:42:18.450Z,-0.10
2023-12-02T07:44:47.633Z,-0.20
2023-12-02T07:47:14.538Z,-0.10
2023-12-02T07:49:41.254Z,-0.10
2023-12-02T07:52:08.046Z,0.00
2023-12-02T07:54:34.774Z,0.00
2023-12-02T07:57:01.464Z,0.00
2023-12-02T07:59:28.186Z,0.00
2023-12-02T08:01:54.926Z,0.10
2023-12-02T08:04:21.700Z,0.00
2023-12-02T08:06:51.426Z,0.10
2023-12-02T08:09:22.843Z,0.10
2023-12-02T08:11:50.174Z,0.10
2023-12-02T08:32:50.129Z,0.10
2023-12-02T08:35:18.519Z,0.20
2023-12-02T08:37:45.342Z,0.10
2023-12-02T08:40:12.723Z,0.10
2023-12-02T08:42:39.454Z,0.10
2023-12-02T08:45:07.458Z,0.20
2023-12-02T08:47:34.213Z,0.20
2023-12-02T08:50:01.118Z,0.20
2023-12-02T08:52:28.163Z,0.20
2023-12-02T08:54:54.902Z,0.30
2023-12-02T08:57:21.886Z,0.30
2023-12-02T08:59:48.785Z,0.20
2023-12-02T09:02:15.563Z,0.30
2023-12-02T09:04:42.742Z,0.30
2023-12-02T09:07:09.656Z,0.30
2023-12-02T09:09:36.556Z,0.40
2023-12-02T09:12:06.004Z,0.30
2023-12-02T09:14:32.797Z,0.40
2023-12-02T09:17:00.136Z,0.40
2023-12-02T09:19:41.747Z,0.40
2023-12-02T09:22:18.990Z,0.40
2023-12-02T09:24:46.065Z,0.40
2023-12-02T09:27:59.343Z,0.40
2023-12-02T09:30:28.753Z,0.50
2023-12-02T09:32:58.151Z,0.50
2023-12-02T09:35:24.966Z,0.50
2023-12-02T09:37:59.290Z,0.50
2023-12-02T09:40:52.497Z,0.50
2023-12-02T09:43:41.651Z,0.60
2023-12-02T09:46:28.418Z,0.60
2023-12-02T09:49:04.786Z,0.60
2023-12-02T09:51:34.319Z,0.60
2023-12-02T09:54:12.036Z,0.60
2023-12-02T09:57:01.305Z,0.60
2023-12-02T09:59:33.814Z,0.60
2023-12-02T10:02:12.468Z,0.60
2023-12-02T10:05:00.399Z,0.70
2023-12-02T10:07:38.608Z,0.70
2023-12-02T10:10:11.258Z,0.80
2023-12-02T10:13:18.912Z,0.80
2023-12-02T10:15:50.315Z,0.80
2023-12-02T10:18:19.044Z,0.90
2023-12-02T10:20:55.015Z,0.90
2023-12-02T10:23:35.184Z,0.90
2023-12-02T10:26:06.911Z,0.90
2023-12-02T10:28:48.960Z,0.90
2023-12-02T10:31:28.655Z,0.90
2023-12-02T10:34:24.568Z,1.00
2023-12-02T10:36:54.858Z,0.90
2023-12-02T10:39:38.563Z,0.90
2023-12-02T10:42:05.734Z,0.90
2023-12-02T10:44:35.115Z,0.90
2023-12-02T10:47:04.374Z,1.00
2023-12-02T10:49:32.510Z,1.00
2023-12-02T10:54:39.816Z,1.00
2023-12-02T10:57:09.193Z,1.00
2023-12-02T10:59:46.222Z,1.00
2023-12-02T11:02:32.469Z,1.00
2023-12-02T11:05:43.024Z,0.90
2023-12-02T11:08:16.315Z,1.00
2023-12-02T11:10:55.566Z,0.90
2023-12-02T11:13:26.411Z,0.90
2023-12-02T11:16:22.556Z,0.90
2023-12-02T11:19:19.718Z,0.90
2023-12-02T11:22:08.149Z,0.90
2023-12-02T11:24:53.602Z,0.90
2023-12-02T11:27:39.117Z,0.90
2023-12-02T11:30:18.670Z,1.00
2023-12-02T11:33:11.787Z,1.00
2023-12-02T11:35:41.326Z,1.00
2023-12-02T11:38:22.090Z,0.90
2023-12-02T11:41:20.952Z,0.90
2023-12-02T11:44:25.856Z,0.90
2023-12-02T11:47:15.194Z,1.00
2023-12-02T11:50:00.517Z,1.00
2023-12-02T11:52:48.773Z,1.00
2023-12-02T11:55:25.408Z,1.00
2023-12-02T11:57:58.162Z,1.00
2023-12-02T12:00:46.560Z,0.90
2023-12-02T12:03:58.386Z,0.90
2023-12-02T12:06:41.747Z,0.90
2023-12-02T12:09:34.604Z,1.00
2023-12-02T12:12:07.483Z,0.70
2023-12-02T12:14:39.119Z,0.60
2023-12-02T12:17:06.436Z,0.40
2023-12-02T12:19:35.400Z,0.30
2023-12-02T12:22:02.191Z,0.30
2023-12-02T12:24:33.987Z,0.30
2023-12-02T12:27:01.542Z,0.30
2023-12-02T12:29:30.729Z,0.30
2023-12-02T12:32:00.387Z,0.30
2023-12-02T12:34:28.531Z,0.20
2023-12-02T12:36:56.716Z,0.20
2023-12-02T12:39:23.893Z,0.10
2023-12-02T12:41:52.508Z,0.20
2023-12-02T12:44:20.568Z,0.10
2023-12-02T12:46:48.447Z,0.20
2023-12-02T12:49:23.271Z,0.10
2023-12-02T12:51:55.671Z,0.00
2023-12-02T12:54:25.244Z,-0.10
2023-12-02T12:56:57.196Z,-0.20
2023-12-02T12:59:27.986Z,-0.20
2023-12-02T13:02:25.105Z,-0.30
2023-12-02T13:05:05.553Z,-0.30
2023-12-02T13:08:08.619Z,-0.30
2023-12-02T13:10:36.776Z,-0.30
2023-12-02T13:13:04.307Z,-0.40
2023-12-02T13:15:35.325Z,-0.40
2023-12-02T13:18:03.703Z,-0.40
2023-12-02T13:20:34.196Z,-0.50
2023-12-02T13:23:07.087Z,-0.50
2023-12-02T13:25:38.934Z,-0.50
2023-12-02T13:28:27.386Z,-0.50
2023-12-02T13:30:56.879Z,-0.50
2023-12-02T13:33:50.240Z,-0.50
2023-12-02T13:36:25.924Z,-0.50
2023-12-02T13:39:10.691Z,-0.40
2023-12-02T13:41:47.439Z,-0.40
2023-12-02T13:44:19.506Z,-0.30
2023-12-02T13:47:06.400Z,-0.30
2023-12-02T13:49:46.084Z,-0.30
2023-12-02T13:52:46.868Z,-0.30
2023-12-02T13:55:40.413Z,-0.30
2023-12-02T13:58:23.018Z,-0.30
2023-12-02T14:01:10.361Z,-0.20
2023-12-02T14:04:01.898Z,-0.20
2023-12-02T14:07:05.342Z,-0.10
2023-12-02T14:09:39.539Z,-0.10
2023-12-02T14:12:24.801Z,-0.10
2023-12-02T14:15:13.780Z,0.00
2023-12-02T14:17:50.211Z,0.00
2023-12-02T14:20:39.971Z,0.00
2023-12-02T14:23:31.452Z,0.00
2023-12-02T14:26:32.690Z,0.10
2023-12-02T14:29:18.635Z,0.00
2023-12-02T14:31:51.497Z,0.00
2023-12-02T14:34:59.109Z,0.00
2023-12-02T14:37:38.018Z,0.00
2023-12-02T14:40:24.389Z,0.00
2023-12-02T14:43:13.637Z,0.10
2023-12-02T14:45:44.325Z,0.10
2023-12-02T14:48:17.019Z,0.10
2023-12-02T14:50:48.996Z,0.10
2023-12-02T14:53:18.616Z,0.00
2023-12-02T14:55:45.370Z,0.00
2023-12-02T14:58:35.013Z,-0.10
2023-12-02T15:01:06.339Z,-0.10
2023-12-02T15:03:38.508Z,-0.20
2023-12-02T15:06:09.897Z,-0.20
2023-12-02T15:08:43.253Z,-0.20
2023-12-02T15:11:12.802Z,-0.30
2023-12-02T15:13:40.151Z,-0.40
2023-12-02T15:16:08.219Z,-0.40
2023-12-02T15:18:37.880Z,-0.30
2023-12-02T15:21:09.436Z,-0.40
2023-12-02T15:23:37.571Z,-0.40
2023-12-02T15:26:04.997Z,-0.50
2023-12-02T15:28:44.001Z,-0.50
2023-12-02T15:31:17.225Z,-0.60
2023-12-02T15:33:57.806Z,-0.60
2023-12-02T15:36:27.275Z,-0.60
2023-12-02T15:38:56.105Z,-0.60
2023-12-02T15:41:26.853Z,-0.60
2023-12-02T15:44:01.105Z,-0.70
2023-12-02T15:46:31.051Z,-0.70
2023-12-02T15:49:02.717Z,-0.70
2023-12-02T15:51:33.730Z,-0.70
2023-12-02T15:54:04.786Z,-0.80
2023-12-02T15:56:33.113Z,-0.80
2023-12-02T15:59:03.616Z,-0.90
2023-12-02T16:01:30.693Z,-0.90
2023-12-02T16:03:59.208Z,-1.00
2023-12-02T16:06:26.044Z,-1.10
2023-12-02T16:08:53.561Z,-1.10
2023-12-02T16:11:20.619Z,-1.10
2023-12-02T16:13:47.772Z,-1.10
2023-12-02T16:16:18.213Z,-1.10
2023-12-02T16:18:48.906Z,-1.20
2023-12-02T16:21:19.117Z,-1.10
2023-12-02T16:23:47.499Z,-1.10
2023-12-02T16:26:15.749Z,-1.20
2023-12-02T16:28:45.137Z,-1.10
2023-12-02T16:31:12.993Z,-1.10
2023-12-02T16:33:41.928Z,-1.20
2023-12-02T16:36:09.374Z,-1.20
2023-12-02T16:38:39.763Z,-1.10
2023-12-02T16:41:09.939Z,-1.10
2023-12-02T16:43:40.556Z,-1.10
2023-12-02T16:46:08.324Z,-1.20
2023-12-02T16:48:36.175Z,-1.20
2023-12-02T16:51:05.191Z,-1.20
2023-12-02T16:53:31.988Z,-1.20
2023-12-02T16:56:09.953Z,-1.30
2023-12-02T16:58:46.096Z,-1.30
2023-12-02T17:01:25.426Z,-1.30
2023-12-02T17:03:52.245Z,-1.30
2023-12-02T17:06:19.990Z,-1.30
2023-12-02T17:08:49.708Z,-1.40
2023-12-02T17:11:18.928Z,-1.30
2023-12-02T17:13:48.441Z,-1.40
2023-12-02T17:16:36.287Z,-1.30
2023-12-02T17:19:14.056Z,-1.30
2023-12-02T17:21:46.397Z,-1.30
2023-12-02T17:24:18.744Z,-1.30
2023-12-02T17:26:45.894Z,-1.20
2023-12-02T17:29:18.261Z,-1.20
2023-12-02T17:31:45.269Z,-1.20
2023-12-02T17:34:12.197Z,-1.30
2023-12-02T17:36:41.586Z,-1.20
2023-12-02T17:39:08.385Z,-1.20
2023-12-02T17:41:35.097Z,-1.20
2023-12-02T17:44:02.359Z,-1.30
2023-12-02T17:46:29.462Z,-1.20
2023-12-02T17:48:58.533Z,-1.20
2023-12-02T17:51:30.461Z,-1.20
2023-12-02T17:53:58.712Z,-1.20
2023-12-02T17:56:26.151Z,-1.20
2023-12-02T17:58:53.105Z,-1.20
2023-12-02T18:01:22.789Z,-1.20
2023-12-02T18:03:49.544Z,-1.20
2023-12-02T18:06:17.674Z,-1.20
2023-12-02T18:08:46.980Z,-1.20
2023-12-02T18:11:14.209Z,-1.20
2023-12-02T18:13:40.998Z,-1.30
2023-12-02T18:16:11.079Z,-1.30
2023-12-02T18:18:38.215Z,-1.30
2023-12-02T18:21:08.035Z,-1.30
2023-12-02T18:23:35.049Z,-1.20
2023-12-02T18:26:02.312Z,-1.20
2023-12-02T18:28:33.488Z,-1.20
2023-12-02T18:31:00.699Z,-1.20
2023-12-02T18:33:27.612Z,-1.20
2023-12-02T18:35:57.315Z,-1.20
2023-12-02T18:38:24.246Z,-1.20
2023-12-02T18:40:51.135Z,-1.20
2023-12-02T18:43:18.092Z,-1.10
2023-12-02T18:45:45.428Z,-1.10
2023-12-02T18:48:12.339Z,-1.20
2023-12-02T18:50:42.511Z,-1.20
2023-12-02T18:53:09.305Z,-1.20
2023-12-02T18:55:36.161Z,-1.20
2023-12-02T18:58:03.150Z,-1.20
2023-12-02T19:00:30.762Z,-1.20
2023-12-02T19:02:58.000Z,-1.20
2023-12-02T19:05:25.187Z,-1.20
2023-12-02T19:07:52.724Z,-1.20
2023-12-02T19:10:22.315Z,-1.20
2023-12-02T19:12:53.836Z,-1.10
2023-12-02T19:15:21.709Z,-1.10
2023-12-02T19:17:50.967Z,-1.10
2023-12-02T19:20:18.458Z,-1.10
2023-12-02T19:22:47.427Z,-1.10
2023-12-02T19:25:14.495Z,-1.10
2023-12-02T19:27:41.558Z,-1.10
2023-12-02T19:30:09.195Z,-1.10
2023-12-02T19:32:40.680Z,-1.20
2023-12-02T19:35:07.798Z,-1.20
2023-12-02T19:37:34.618Z,-1.10
2023-12-02T19:40:01.583Z,-1.10
2023-12-02T19:42:29.416Z,-1.10
2023-12-02T19:44:56.552Z,-1.10
2023-12-02T19:47:25.505Z,-1.10
2023-12-02T19:49:55.003Z,-1.10
2023-12-02T19:52:22.337Z,-1.10
2023-12-02T19:54:49.803Z,-1.10
2023-12-02T19:57:16.841Z,-1.10
2023-12-02T19:59:44.221Z,-1.10
2023-12-02T20:02:16.288Z,-1.10
2023-12-02T20:04:45.543Z,-1.10
2023-12-02T20:07:12.380Z,-1.10
2023-12-02T20:09:43.571Z,-1.10
2023-12-02T20:12:10.926Z,-1.10
2023-12-02T20:14:37.817Z,-1.10
2023-12-02T20:17:05.582Z,-1.10
2023-12-02T20:19:34.406Z,-1.10
2023-12-02T20:22:01.292Z,-1.10
2023-12-02T20:24:28.287Z,-1.10
2023-12-02T20:26:58.050Z,-1.10
2023-12-02T20:29:25.228Z,-1.10
2023-12-02T20:31:52.475Z,-1.10
2023-12-02T20:34:19.375Z,-1.10
2023-12-02T20:36:48.458Z,-1.10
2023-12-02T20:39:15.403Z,-1.10
2023-12-02T20:41:42.611Z,-1.10
2023-12-02T20:44:12.194Z,-1.10
2023-12-02T20:46:40.764Z,-1.10
2023-12-02T20:49:10.587Z,-1.10
2023-12-02T20:51:42.164Z,-1.10
2023-12-02T20:54:14.058Z,-1.10
2023-12-02T20:56:43.589Z,-1.10
2023-12-02T20:59:10.643Z,-1.10
2023-12-02T21:01:37.785Z,-1.10
2023-12-02T21:04:05.081Z,-1.10
2023-12-02T21:06:32.536Z,-1.10
2023-12-02T21:09:01.915Z,-1.20
2023-12-02T21:11:29.205Z,-1.20
2023-12-02T21:13:56.521Z,-1.20
2023-12-02T21:16:23.517Z,-1.10
2023-12-02T21:18:53.221Z,-1.20
2023-12-02T21:21:20.753Z,-1.30
2023-12-02T21:23:52.378Z,-1.30
2023-12-02T21:26:21.200Z,-1.30
2023-12-02T21:28:49.153Z,-1.30
2023-12-02T21:31:17.499Z,-1.30
2023-12-02T21:33:44.300Z,-1.40
2023-12-02T21:36:17.092Z,-1.40
2023-12-02T21:38:49.261Z,-1.50
2023-12-02T21:41:19.539Z,-1.40
2023-12-02T21:43:50.748Z,-1.40
2023-12-02T21:46:28.823Z,-1.50
2023-12-02T21:49:00.988Z,-1.50
2023-12-02T21:51:34.187Z,-1.50
2023-12-02T21:54:05.464Z,-1.50
2023-12-02T21:56:45.494Z,-1.50
2023-12-02T21:59:18.484Z,-1.50
2023-12-02T22:01:50.216Z,-1.60
2023-12-02T22:04:42.697Z,-1.60
2023-12-02T22:07:20.422Z,-1.60
2023-12-02T22:09:49.960Z,-1.60
2023-12-02T22:12:22.595Z,-1.60
2023-12-02T22:14:52.436Z,-1.60
2023-12-02T22:17:26.042Z,-1.60
2023-12-02T22:19:53.129Z,-1.60
2023-12-02T22:22:44.996Z,-1.60
2023-12-02T22:25:19.550Z,-1.60
2023-12-02T22:27:47.334Z,-1.60
2023-12-02T22:30:17.975Z,-1.60
2023-12-02T22:32:47.747Z,-1.60
2023-12-02T22:35:16.616Z,-1.60
2023-12-02T22:37:44.031Z,-1.60
2023-12-02T22:40:34.822Z,-1.60
2023-12-02T22:43:09.087Z,-1.60
2023-12-02T22:45:38.399Z,-1.60
2023-12-02T22:48:24.956Z,-1.60
2023-12-02T22:50:51.839Z,-1.70
2023-12-02T22:53:31.619Z,-1.70
2023-12-02T22:56:02.282Z,-1.80
2023-12-02T22:58:30.813Z,-1.80
2023-12-02T23:00:57.598Z,-1.80
2023-12-02T23:03:25.820Z,-1.80
2023-12-02T23:05:59.499Z,-1.80
2023-12-02T23:08:29.295Z,-1.80
2023-12-02T23:10:56.514Z,-1.80
2023-12-02T23:13:38.190Z,-1.90
2023-12-02T23:16:24.949Z,-1.90
2023-12-02T23:18:51.799Z,-1.90
2023-12-02T23:21:18.570Z,-1.90
2023-12-02T23:23:45.573Z,-1.90
2023-12-02T23:26:13.684Z,-2.00
2023-12-02T23:28:43.628Z,-1.90
2023-12-02T23:31:10.332Z,-2.00
2023-12-02T23:33:39.753Z,-1.90
2023-12-02T23:36:07.433Z,-2.00
2023-12-02T23:38:36.233Z,-2.00
2023-12-02T23:41:03.119Z,-2.00
2023-12-02T23:43:35.428Z,-2.00
2023-12-02T23:46:03.644Z,-2.00
2023-12-02T23:48:30.450Z,-2.00
2023-12-02T23:50:57.247Z,-2.00
2023-12-02T23:53:26.410Z,-2.00
2023-12-02T23:55:55.851Z,-2.00
2023-12-02T23:58:22.824Z,-2.10
